Terminal Aerodrome Forecast
Issued by NWS Amarillo, TX

Home | Current Version | Previous Version | Text Only | Print | Product List | Glossary On
Versions: 1 2 3 4 5 6 7 8 9 10 11 12 13
000
FTUS44 KAMA 231120
TAFDHT
TAF
KDHT 231120Z 2312/2412 26010KT P6SM BKN200
     FM231600 25033G45KT P6SM SCT200
     FM240200 30018G27KT P6SM FEW200
     FM240800 33010KT P6SM FEW200=

USA.gov is the U.S. government's official web portal to all federal, state and local government web resources and services.